createdAt,value
2022-09-26T00:01:38.362Z,99748.13
2022-09-26T00:04:12.913Z,99743.73
2022-09-26T00:06:41.124Z,99740.70
2022-09-26T00:09:09.492Z,99741.33
2022-09-26T00:11:39.472Z,99741.20
2022-09-26T00:14:12.290Z,99732.98
2022-09-26T00:16:40.458Z,99728.17
2022-09-26T00:19:08.577Z,99727.30
2022-09-26T00:21:37.770Z,99729.02
2022-09-26T00:24:06.880Z,99732.85
2022-09-26T00:26:36.521Z,99735.91
2022-09-26T00:29:07.536Z,99739.88
2022-09-26T00:31:40.277Z,99740.11
2022-09-26T00:34:08.610Z,99735.15
2022-09-26T00:36:38.734Z,99734.84
2022-09-26T00:39:09.436Z,99729.15
2022-09-26T00:41:38.177Z,99723.36
2022-09-26T00:44:34.710Z,99717.30
2022-09-26T00:47:04.472Z,99719.38
2022-09-26T00:49:44.241Z,99716.34
2022-09-26T00:52:21.755Z,99711.52
2022-09-26T00:54:54.159Z,99711.72
2022-09-26T00:57:29.310Z,99710.44
2022-09-26T01:00:02.882Z,99716.56
2022-09-26T01:02:31.640Z,99709.33
2022-09-26T01:05:01.872Z,99708.96
2022-09-26T01:07:30.367Z,99702.95
2022-09-26T01:09:59.035Z,99697.23
2022-09-26T01:12:27.210Z,99695.54
2022-09-26T01:14:56.105Z,99700.57
2022-09-26T01:17:25.206Z,99705.47
2022-09-26T01:20:18.025Z,99710.48
2022-09-26T01:22:55.279Z,99710.77
2022-09-26T01:25:54.026Z,99711.52
2022-09-26T01:28:25.094Z,99707.11
2022-09-26T01:31:01.857Z,99702.89
2022-09-26T01:33:49.869Z,99700.35
2022-09-26T01:36:39.505Z,99702.44
2022-09-26T01:39:25.989Z,99698.23
2022-09-26T01:41:59.747Z,99697.52
2022-09-26T01:44:50.523Z,99694.66
2022-09-26T01:47:26.503Z,99689.59
2022-09-26T01:50:01.413Z,99683.66
2022-09-26T01:52:39.557Z,99675.65
2022-09-26T01:55:17.764Z,99660.25
2022-09-26T01:57:54.146Z,99662.38
2022-09-26T02:00:22.493Z,99664.56
2022-09-26T02:02:51.877Z,99672.21
2022-09-26T02:05:33.244Z,99670.73
2022-09-26T02:08:14.911Z,99662.63
2022-09-26T02:10:50.563Z,99662.04
2022-09-26T02:13:23.650Z,99659.51
2022-09-26T02:15:57.672Z,99651.90
2022-09-26T02:18:33.290Z,99650.45
2022-09-26T02:21:07.065Z,99647.74
2022-09-26T02:23:35.148Z,99654.06
2022-09-26T02:26:04.215Z,99649.47
2022-09-26T02:28:33.077Z,99649.30
2022-09-26T02:31:06.225Z,99644.14
2022-09-26T02:33:35.377Z,99640.73
2022-09-26T02:36:07.535Z,99636.05
2022-09-26T02:38:37.783Z,99636.42
2022-09-26T02:41:34.694Z,99639.46
2022-09-26T02:44:29.166Z,99646.23
2022-09-26T02:47:09.981Z,99639.47
2022-09-26T02:50:08.315Z,99642.05
2022-09-26T02:52:43.565Z,99640.09
2022-09-26T02:55:21.802Z,99639.69
2022-09-26T02:57:55.792Z,99632.29
2022-09-26T03:00:28.961Z,99631.59
2022-09-26T03:03:00.109Z,99626.69
2022-09-26T03:05:30.940Z,99628.86
2022-09-26T03:08:23.252Z,99626.92
2022-09-26T03:10:54.944Z,99623.02
2022-09-26T03:13:24.918Z,99622.77
2022-09-26T03:15:56.697Z,99620.98
2022-09-26T03:18:32.639Z,99618.11
2022-09-26T03:21:02.344Z,99609.51
2022-09-26T03:23:30.840Z,99595.64
2022-09-26T03:26:16.680Z,99594.55
2022-09-26T03:28:53.886Z,99597.78
2022-09-26T03:31:24.890Z,99601.67
2022-09-26T03:33:59.969Z,99599.60
2022-09-26T03:36:28.776Z,99596.05
2022-09-26T03:38:57.022Z,99588.90
2022-09-26T03:41:40.511Z,99590.09
2022-09-26T03:44:17.613Z,99583.69
2022-09-26T03:47:05.165Z,99573.92
2022-09-26T03:49:37.136Z,99566.09
2022-09-26T03:52:07.668Z,99561.89
2022-09-26T03:54:35.986Z,99559.94
2022-09-26T03:57:04.168Z,99554.80
2022-09-26T03:59:34.268Z,99549.41
2022-09-26T04:02:02.693Z,99545.20
2022-09-26T04:04:36.977Z,99538.98
2022-09-26T04:07:06.182Z,99541.88
2022-09-26T04:09:34.443Z,99541.83
2022-09-26T04:12:02.517Z,99539.39
2022-09-26T04:14:33.500Z,99538.28
2022-09-26T04:17:03.462Z,99541.10
2022-09-26T04:19:38.211Z,99538.87
2022-09-26T04:22:08.595Z,99539.40
2022-09-26T04:24:37.029Z,99537.54
2022-09-26T04:27:05.813Z,99539.66
2022-09-26T04:29:34.883Z,99536.17
2022-09-26T04:32:17.817Z,99538.11
2022-09-26T04:35:01.852Z,99537.38
2022-09-26T04:37:31.383Z,99537.94
2022-09-26T04:39:59.755Z,99533.14
2022-09-26T04:42:28.642Z,99525.65
2022-09-26T04:44:57.146Z,99524.79
2022-09-26T04:47:25.608Z,99519.55
2022-09-26T04:50:12.335Z,99512.99
2022-09-26T04:52:41.189Z,99507.89
2022-09-26T04:55:09.495Z,99510.00
2022-09-26T04:57:38.818Z,99512.33
2022-09-26T05:00:08.310Z,99514.09
2022-09-26T05:02:36.692Z,99511.33
2022-09-26T05:05:06.935Z,99515.05
2022-09-26T05:07:40.416Z,99512.49
2022-09-26T05:10:12.838Z,99509.70
2022-09-26T05:12:48.081Z,99510.90
2022-09-26T05:15:16.137Z,99514.44
2022-09-26T05:17:45.568Z,99517.38
2022-09-26T05:20:14.347Z,99520.16
2022-09-26T05:22:57.577Z,99520.23
2022-09-26T05:25:47.747Z,99519.66
2022-09-26T05:28:16.331Z,99513.69
2022-09-26T05:30:44.435Z,99507.94
2022-09-26T05:33:13.578Z,99509.63
2022-09-26T05:35:41.429Z,99510.97
2022-09-26T05:38:09.654Z,99506.68
2022-09-26T05:40:59.349Z,99503.29
2022-09-26T05:43:30.970Z,99500.98
2022-09-26T05:46:00.089Z,99496.06
2022-09-26T05:48:32.376Z,99494.30
2022-09-26T05:51:06.572Z,99494.23
2022-09-26T05:53:35.147Z,99494.13
2022-09-26T05:56:04.642Z,99495.23
2022-09-26T05:58:40.325Z,99499.89
2022-09-26T06:01:16.838Z,99498.66
2022-09-26T06:03:46.942Z,99497.64
2022-09-26T06:06:21.060Z,99498.33
2022-09-26T06:08:54.773Z,99496.47
2022-09-26T06:11:50.564Z,99484.95
2022-09-26T06:14:18.296Z,99478.48
2022-09-26T06:16:48.737Z,99478.95
2022-09-26T06:19:22.052Z,99482.83
2022-09-26T06:21:51.830Z,99478.86
2022-09-26T06:24:21.430Z,99479.52
2022-09-26T06:26:52.671Z,99474.29
2022-09-26T06:29:20.949Z,99473.98
2022-09-26T06:31:49.486Z,99474.14
2022-09-26T06:34:17.590Z,99475.21
2022-09-26T06:37:05.701Z,99474.81
2022-09-26T06:39:37.342Z,99478.14
2022-09-26T06:42:07.788Z,99477.52
2022-09-26T06:44:59.154Z,99472.38
2022-09-26T06:47:31.745Z,99471.90
2022-09-26T06:50:18.538Z,99470.91
2022-09-26T06:52:52.846Z,99471.73
2022-09-26T06:55:22.862Z,99472.91
2022-09-26T06:57:51.053Z,99475.42
2022-09-26T07:00:19.980Z,99481.21
2022-09-26T07:03:07.856Z,99487.02
2022-09-26T07:05:51.946Z,99492.92
2022-09-26T07:08:28.720Z,99497.86
2022-09-26T07:11:28.258Z,99498.17
2022-09-26T07:13:54.355Z,99502.83
2022-09-26T07:16:24.268Z,99511.77
2022-09-26T07:19:04.827Z,99514.38
2022-09-26T07:21:39.233Z,99519.27
2022-09-26T07:24:14.297Z,99523.86
2022-09-26T07:26:43.745Z,99528.30
2022-09-26T07:29:12.625Z,99535.22
2022-09-26T07:31:41.511Z,99537.88
2022-09-26T07:34:18.311Z,99546.14
2022-09-26T07:36:47.641Z,99549.87
2022-09-26T07:39:16.207Z,99556.34
2022-09-26T07:41:46.799Z,99561.36
2022-09-26T07:45:09.676Z,99565.62
2022-09-26T07:47:22.130Z,99581.19
2022-09-26T07:50:08.918Z,99582.61
2022-09-26T07:52:46.157Z,99581.64
2022-09-26T07:55:27.575Z,99584.55
2022-09-26T07:58:10.421Z,99581.66
2022-09-26T08:01:18.400Z,99585.06
2022-09-26T08:04:12.065Z,99597.27
2022-09-26T08:06:42.537Z,99599.39
2022-09-26T08:09:11.742Z,99593.29
2022-09-26T08:11:58.443Z,99578.63
2022-09-26T08:14:49.253Z,99573.22
2022-09-26T08:17:26.441Z,99570.11
2022-09-26T08:19:54.864Z,99568.91
2022-09-26T08:22:23.107Z,99566.20
2022-09-26T08:24:55.105Z,99560.08
2022-09-26T08:27:34.170Z,99568.71
2022-09-26T08:30:03.167Z,99568.74
2022-09-26T08:32:33.487Z,99568.39
2022-09-26T08:35:02.115Z,99574.52
2022-09-26T08:37:57.295Z,99583.48
2022-09-26T08:40:59.667Z,99586.02
2022-09-26T08:44:08.100Z,99581.89
2022-09-26T08:47:12.088Z,99555.05
2022-09-26T08:50:18.690Z,99535.78
2022-09-26T08:52:54.445Z,99536.17
2022-09-26T08:55:46.958Z,99543.69
2022-09-26T08:58:29.148Z,99553.95
2022-09-26T09:01:04.640Z,99563.67
2022-09-26T09:04:02.628Z,99568.58
2022-09-26T09:06:32.686Z,99550.50
2022-09-26T09:09:01.185Z,99514.08
2022-09-26T09:12:06.013Z,99501.75
2022-09-26T09:15:26.660Z,99521.84
2022-09-26T09:18:29.787Z,99522.06
2022-09-26T09:21:43.549Z,99497.71
2022-09-26T09:24:25.114Z,99486.43
2022-09-26T09:30:21.613Z,99506.65
2022-09-26T09:33:17.206Z,99511.98
2022-09-26T09:35:57.852Z,99499.35
2022-09-26T09:38:37.868Z,99466.96
2022-09-26T09:41:21.556Z,99451.79
2022-09-26T09:43:54.883Z,99475.61
2022-09-26T09:46:38.409Z,99472.34
2022-09-26T09:49:09.691Z,99449.96
2022-09-26T09:51:51.458Z,99443.34
2022-09-26T09:54:47.728Z,99442.47
2022-09-26T09:57:18.941Z,99463.54
2022-09-26T09:59:56.035Z,99479.64
2022-09-26T10:02:37.211Z,99485.92
2022-09-26T10:05:20.326Z,99496.69
2022-09-26T10:07:49.765Z,99497.94
2022-09-26T10:11:12.886Z,99490.05
2022-09-26T10:14:07.435Z,99493.31
2022-09-26T10:17:09.256Z,99487.81
2022-09-26T10:19:45.231Z,99494.47
2022-09-26T10:22:37.574Z,99499.02
2022-09-26T10:25:17.055Z,99501.32
2022-09-26T10:27:55.384Z,99499.21
2022-09-26T10:30:28.398Z,99503.94
2022-09-26T10:33:04.464Z,99518.78
2022-09-26T10:36:21.852Z,99530.33
2022-09-26T10:39:17.426Z,99526.17
2022-09-26T10:41:47.613Z,99519.98
2022-09-26T10:44:27.924Z,99514.86
2022-09-26T10:47:18.923Z,99509.51
2022-09-26T10:50:08.210Z,99505.13
2022-09-26T10:52:50.614Z,99508.77
2022-09-26T10:55:32.664Z,99509.48
2022-09-26T10:58:08.974Z,99509.27
2022-09-26T11:00:43.649Z,99505.23
2022-09-26T11:03:22.102Z,99499.45
2022-09-26T11:06:29.134Z,99498.20
2022-09-26T11:09:05.322Z,99503.51
2022-09-26T11:12:26.813Z,99503.54
2022-09-26T11:15:06.094Z,99489.34
2022-09-26T11:17:48.150Z,99486.04
2022-09-26T11:20:40.774Z,99496.21
2022-09-26T11:23:17.505Z,99493.84
2022-09-26T11:25:58.220Z,99497.10
2022-09-26T11:28:38.457Z,99500.98
2022-09-26T11:31:35.542Z,99490.39
2022-09-26T11:34:36.231Z,99478.35
2022-09-26T11:37:13.115Z,99470.94
2022-09-26T11:40:10.129Z,99471.60
2022-09-26T11:43:16.796Z,99479.75
2022-09-26T11:46:23.295Z,99470.73
2022-09-26T11:49:50.868Z,99457.77
2022-09-26T11:52:49.507Z,99470.79
2022-09-26T11:55:20.658Z,99462.88
2022-09-26T11:58:15.156Z,99469.27
2022-09-26T12:00:58.063Z,99476.27
2022-09-26T12:04:00.397Z,99472.48
2022-09-26T12:06:37.546Z,99467.20
2022-09-26T12:09:47.978Z,99462.84
2022-09-26T12:12:24.557Z,99461.23
2022-09-26T12:15:31.354Z,99459.30
2022-09-26T12:18:22.301Z,99455.27
2022-09-26T12:20:53.878Z,99456.77
2022-09-26T12:23:35.618Z,99454.61
2022-09-26T12:26:27.542Z,99450.18
2022-09-26T12:28:58.447Z,99447.73
2022-09-26T12:31:56.166Z,99447.06
2022-09-26T12:34:44.773Z,99442.59
2022-09-26T12:38:00.256Z,99436.20
2022-09-26T12:40:34.571Z,99433.70
2022-09-26T12:43:19.348Z,99428.27
2022-09-26T12:46:11.156Z,99412.65
2022-09-26T12:49:13.777Z,99401.08
2022-09-26T12:51:52.309Z,99408.34
2022-09-26T12:54:57.458Z,99407.33
2022-09-26T12:57:30.721Z,99414.77
2022-09-26T13:00:14.259Z,99421.73
2022-09-26T13:03:10.210Z,99421.34
2022-09-26T13:05:41.454Z,99416.55
2022-09-26T13:08:38.944Z,99411.98
2022-09-26T13:11:13.113Z,99411.23
2022-09-26T13:13:55.800Z,99406.19
2022-09-26T13:16:47.073Z,99386.73
2022-09-26T13:19:35.780Z,99399.80
2022-09-26T13:22:09.380Z,99402.23
2022-09-26T13:24:47.944Z,99394.92
2022-09-26T13:27:34.571Z,99380.33
2022-09-26T13:30:13.360Z,99363.02
2022-09-26T13:33:11.143Z,99376.30
2022-09-26T13:35:54.709Z,99385.34
2022-09-26T13:38:54.905Z,99388.69
2022-09-26T13:41:52.095Z,99387.05
2022-09-26T13:44:38.134Z,99385.68
2022-09-26T13:47:30.606Z,99382.67
2022-09-26T13:50:19.961Z,99386.30
2022-09-26T13:53:08.099Z,99380.35
2022-09-26T13:55:36.591Z,99382.64
2022-09-26T13:58:19.259Z,99385.02
2022-09-26T14:00:53.633Z,99389.10
2022-09-26T14:03:23.654Z,99393.99
2022-09-26T14:06:07.423Z,99391.42
2022-09-26T14:08:55.312Z,99385.69
2022-09-26T14:11:46.054Z,99376.50
2022-09-26T14:14:18.335Z,99374.89
2022-09-26T14:17:02.842Z,99376.54
2022-09-26T14:19:41.220Z,99369.44
2022-09-26T14:22:21.576Z,99363.93
2022-09-26T14:24:50.295Z,99357.53
2022-09-26T14:27:18.270Z,99358.34
2022-09-26T14:29:54.052Z,99365.73
2022-09-26T14:32:27.224Z,99371.79
2022-09-26T14:34:59.337Z,99368.04
2022-09-26T14:37:39.525Z,99368.13
2022-09-26T14:40:10.384Z,99374.34
2022-09-26T14:42:58.843Z,99374.86
2022-09-26T14:45:44.746Z,99372.34
2022-09-26T14:48:26.043Z,99367.40
2022-09-26T14:51:04.761Z,99359.43
2022-09-26T14:53:47.893Z,99352.08
2022-09-26T14:56:38.552Z,99346.42
2022-09-26T14:59:24.802Z,99346.23
2022-09-26T15:02:09.860Z,99349.23
2022-09-26T15:04:38.932Z,99346.59
2022-09-26T15:07:16.319Z,99343.77
2022-09-26T15:10:02.553Z,99353.55
2022-09-26T15:12:52.547Z,99354.00
2022-09-26T15:15:47.597Z,99354.14
2022-09-26T15:18:27.868Z,99349.83
2022-09-26T15:21:29.483Z,99349.98
2022-09-26T15:23:57.739Z,99339.83
2022-09-26T15:26:34.883Z,99333.91
2022-09-26T15:29:07.278Z,99331.71
2022-09-26T15:31:41.758Z,99329.23
2022-09-26T15:34:21.765Z,99331.68
2022-09-26T15:36:58.190Z,99334.89
2022-09-26T15:39:32.829Z,99330.68
2022-09-26T15:42:31.835Z,99333.05
2022-09-26T15:45:01.673Z,99335.14
2022-09-26T15:47:30.033Z,99330.15
2022-09-26T15:50:23.624Z,99329.56
2022-09-26T15:53:06.094Z,99324.12
2022-09-26T15:55:42.656Z,99324.11
2022-09-26T15:58:15.901Z,99321.04
2022-09-26T16:00:49.065Z,99322.46
2022-09-26T16:03:55.425Z,99323.66
2022-09-26T16:06:30.901Z,99331.72
2022-09-26T16:09:06.112Z,99326.75
2022-09-26T16:11:51.596Z,99317.90
2022-09-26T16:14:29.232Z,99314.71
2022-09-26T16:17:24.073Z,99318.54
2022-09-26T16:19:58.378Z,99319.59
2022-09-26T16:22:52.506Z,99327.92
2022-09-26T16:25:53.625Z,99326.83
2022-09-26T16:28:42.772Z,99312.72
2022-09-26T16:31:28.177Z,99309.48
2022-09-26T16:33:58.633Z,99305.77
2022-09-26T16:36:33.210Z,99306.07
2022-09-26T16:39:04.811Z,99304.78
2022-09-26T16:42:02.255Z,99296.98
2022-09-26T16:44:41.117Z,99292.73
2022-09-26T16:47:44.117Z,99291.41
2022-09-26T16:50:29.318Z,99290.37
2022-09-26T16:52:57.797Z,99286.93
2022-09-26T16:55:27.458Z,99287.38
2022-09-26T16:58:05.911Z,99284.60
2022-09-26T17:00:53.952Z,99288.00
2022-09-26T17:03:24.621Z,99295.08
2022-09-26T17:05:55.673Z,99300.35
2022-09-26T17:08:26.506Z,99302.78
2022-09-26T17:10:57.414Z,99307.30
2022-09-26T17:13:27.614Z,99306.53
2022-09-26T17:15:58.207Z,99312.00
2022-09-26T17:18:29.695Z,99311.95
2022-09-26T17:20:59.290Z,99308.42
2022-09-26T17:23:44.561Z,99309.23
2022-09-26T17:26:21.546Z,99308.81
2022-09-26T17:28:53.353Z,99302.94
2022-09-26T17:31:21.559Z,99298.16
2022-09-26T17:33:53.455Z,99300.66
2022-09-26T17:36:24.808Z,99309.34
2022-09-26T17:38:53.750Z,99317.29
2022-09-26T17:41:23.204Z,99313.18
2022-09-26T17:44:00.666Z,99309.25
2022-09-26T17:46:29.743Z,99301.68
2022-09-26T17:48:59.334Z,99299.50
2022-09-26T17:51:27.287Z,99301.71
2022-09-26T17:53:57.558Z,99297.56
2022-09-26T17:56:26.699Z,99296.53
2022-09-26T17:58:57.325Z,99299.44
2022-09-26T18:01:34.526Z,99302.73
2022-09-26T18:04:07.333Z,99305.62
2022-09-26T18:06:37.041Z,99298.17
2022-09-26T18:09:07.543Z,99292.88
2022-09-26T18:11:37.535Z,99287.98
2022-09-26T18:14:08.069Z,99288.20
2022-09-26T18:16:36.202Z,99290.27
2022-09-26T18:19:14.143Z,99294.00
2022-09-26T18:21:42.122Z,99297.58
2022-09-26T18:24:19.410Z,99296.23
2022-09-26T18:26:51.187Z,99292.20
2022-09-26T18:29:35.917Z,99292.23
2022-09-26T18:32:12.071Z,99291.11
2022-09-26T18:34:41.255Z,99289.16
2022-09-26T18:37:09.398Z,99286.78
2022-09-26T18:39:37.397Z,99287.20
2022-09-26T18:42:09.443Z,99285.39
2022-09-26T18:44:37.740Z,99286.80
2022-09-26T18:47:13.508Z,99281.94
2022-09-26T18:49:42.035Z,99274.73
2022-09-26T18:52:18.120Z,99273.42
2022-09-26T18:54:47.050Z,99277.85
2022-09-26T18:57:33.477Z,99277.09
2022-09-26T19:00:02.791Z,99280.09
2022-09-26T19:02:38.398Z,99284.41
2022-09-26T19:05:10.150Z,99283.48
2022-09-26T19:07:38.324Z,99284.67
2022-09-26T19:10:10.438Z,99277.80
2022-09-26T19:12:39.640Z,99273.58
2022-09-26T19:15:14.977Z,99269.23
2022-09-26T19:17:43.511Z,99262.23
2022-09-26T19:20:11.448Z,99255.77
2022-09-26T19:22:39.959Z,99260.27
2022-09-26T19:25:10.513Z,99264.72
2022-09-26T19:27:48.940Z,99263.86
2022-09-26T19:30:20.364Z,99261.78
2022-09-26T19:32:52.900Z,99262.13
2022-09-26T19:35:30.455Z,99260.19
2022-09-26T19:38:00.440Z,99255.52
2022-09-26T19:40:29.119Z,99256.20
2022-09-26T19:42:58.366Z,99257.27
2022-09-26T19:45:27.055Z,99257.37
2022-09-26T19:47:56.411Z,99261.75
2022-09-26T19:50:28.732Z,99256.31
2022-09-26T19:53:00.942Z,99254.66
2022-09-26T19:55:31.520Z,99256.95
2022-09-26T19:58:12.953Z,99258.63
2022-09-26T20:00:43.635Z,99256.51
2022-09-26T20:03:19.469Z,99262.26
2022-09-26T20:05:49.479Z,99264.70
2022-09-26T20:08:25.288Z,99265.86
2022-09-26T20:10:55.679Z,99263.36
2022-09-26T20:13:23.799Z,99257.70
2022-09-26T20:15:51.873Z,99248.05
2022-09-26T20:18:24.323Z,99247.89
2022-09-26T20:20:55.837Z,99254.91
2022-09-26T20:23:26.930Z,99251.65
2022-09-26T20:25:55.764Z,99251.39
2022-09-26T20:28:23.994Z,99251.04
2022-09-26T20:30:52.012Z,99258.55
2022-09-26T20:33:22.397Z,99255.08
2022-09-26T20:36:11.520Z,99260.79
2022-09-26T20:38:42.580Z,99264.09
2022-09-26T20:41:19.005Z,99269.61
2022-09-26T20:43:51.818Z,99272.70
2022-09-26T20:46:22.204Z,99271.45
2022-09-26T20:48:50.849Z,99267.94
2022-09-26T20:51:23.631Z,99260.31
2022-09-26T20:53:52.125Z,99261.58
2022-09-26T20:56:21.310Z,99256.18
2022-09-26T20:58:50.068Z,99256.53
2022-09-26T21:01:20.389Z,99255.84
2022-09-26T21:03:52.710Z,99262.22
2022-09-26T21:06:23.479Z,99257.12
2022-09-26T21:08:51.445Z,99255.55
2022-09-26T21:11:21.138Z,99259.74
2022-09-26T21:13:49.577Z,99263.43
2022-09-26T21:16:21.825Z,99258.45
2022-09-26T21:18:52.547Z,99255.48
2022-09-26T21:21:21.994Z,99257.30
2022-09-26T21:24:15.951Z,99260.05
2022-09-26T21:26:43.909Z,99254.41
2022-09-26T21:29:15.838Z,99244.24
2022-09-26T21:31:49.482Z,99235.17
2022-09-26T21:34:26.942Z,99231.85
2022-09-26T21:36:57.495Z,99236.83
2022-09-26T21:39:26.516Z,99235.66
2022-09-26T21:41:58.735Z,99234.12
2022-09-26T21:44:42.985Z,99224.47
2022-09-26T21:47:11.287Z,99222.34
2022-09-26T21:49:39.315Z,99218.52
2022-09-26T21:52:12.688Z,99219.46
2022-09-26T21:54:44.310Z,99219.99
2022-09-26T21:57:29.339Z,99215.61
2022-09-26T21:59:58.756Z,99216.70
2022-09-26T22:02:27.668Z,99214.36
2022-09-26T22:04:56.035Z,99213.55
2022-09-26T22:07:24.173Z,99201.94
2022-09-26T22:09:52.689Z,99194.86
2022-09-26T22:12:20.906Z,99199.48
2022-09-26T22:14:48.857Z,99205.65
2022-09-26T22:17:17.508Z,99203.98
2022-09-26T22:19:45.591Z,99197.77
2022-09-26T22:22:13.647Z,99197.36
2022-09-26T22:24:41.740Z,99202.67
2022-09-26T22:27:09.807Z,99200.67
2022-09-26T22:29:37.822Z,99211.50
2022-09-26T22:32:06.572Z,99194.52
2022-09-26T22:34:34.779Z,99186.85
2022-09-26T22:37:02.975Z,99183.46
2022-09-26T22:39:31.047Z,99184.02
2022-09-26T22:41:58.988Z,99180.38
2022-09-26T22:44:27.457Z,99183.70
2022-09-26T22:46:55.768Z,99182.41
2022-09-26T22:49:24.303Z,99180.75
2022-09-26T22:51:53.003Z,99182.28
2022-09-26T22:54:21.007Z,99182.81
2022-09-26T22:56:49.319Z,99176.74
2022-09-26T22:59:17.360Z,99174.35
2022-09-26T23:01:45.432Z,99174.77
2022-09-26T23:04:13.334Z,99172.88
2022-09-26T23:06:41.498Z,99171.70
2022-09-26T23:09:09.768Z,99172.44
2022-09-26T23:11:38.089Z,99170.41
2022-09-26T23:14:06.866Z,99170.91
2022-09-26T23:16:34.909Z,99170.74
2022-09-26T23:19:03.256Z,99169.36
2022-09-26T23:21:31.248Z,99168.14
2022-09-26T23:24:00.619Z,99164.15
2022-09-26T23:26:32.070Z,99160.00
2022-09-26T23:29:00.654Z,99155.98
2022-09-26T23:31:29.021Z,99160.20
2022-09-26T23:33:57.946Z,99160.03
2022-09-26T23:36:26.067Z,99153.35
2022-09-26T23:38:57.456Z,99152.19
2022-09-26T23:41:26.009Z,99151.70
2022-09-26T23:43:54.274Z,99143.55
2022-09-26T23:46:22.478Z,99142.48
2022-09-26T23:48:51.092Z,99143.77
2022-09-26T23:51:19.663Z,99142.04
2022-09-26T23:53:48.918Z,99134.62
2022-09-26T23:56:17.061Z,99134.05
2022-09-26T23:58:44.957Z,99135.96
